Time;durP1;ratioP1;P1;durP2;ratioP2;P2;SDS_P1;SDS_P2;PMS_P1;PMS_P2;Temp;Humidity;BMP_temperature;BMP_pressure;BME280_temperature;BME280_humidity;BME280_pressure;Samples;Min_cycle;Max_cycle;Signal;HPM_P1;HPM_P2
2023/11/02 00:00:36;;;;;;;0.00;0.00;;;12.10;99.90;;;;;;5086581;28;20854;-82
2023/11/02 00:03:06;;;;;;;0.10;0.10;;;12.20;99.90;;;;;;5086006;28;20911;-81
2023/11/02 00:05:57;;;;;;;0.10;0.10;;;12.20;99.90;;;;;;5083509;28;20020;-82
2023/11/02 00:08:30;;;;;;;0.10;0.10;;;12.20;99.90;;;;;;5086487;28;20516;-81
2023/11/02 00:10:55;;;;;;;0.10;0.10;;;12.10;99.90;;;;;;5085288;28;20050;-81
2023/11/02 00:13:26;;;;;;;0.10;0.10;;;12.20;99.90;;;;;;5085153;28;20734;-82
2023/11/02 00:15:53;;;;;;;0.00;0.00;;;12.10;99.90;;;;;;5092245;28;20027;-83
2023/11/02 00:18:19;;;;;;;0.00;0.00;;;11.90;99.90;;;;;;5066909;28;20837;-83
2023/11/02 00:20:47;;;;;;;0.10;0.10;;;11.90;99.90;;;;;;5093572;28;20045;-83
2023/11/02 00:23:20;;;;;;;0.00;0.00;;;11.90;99.90;;;;;;5095535;28;20032;-82
2023/11/02 00:25:48;;;;;;;0.10;0.10;;;12.10;99.90;;;;;;5071982;28;20553;-82
2023/11/02 00:28:14;;;;;;;0.10;0.10;;;12.20;99.90;;;;;;5087105;28;20089;-83
2023/11/02 00:30:44;;;;;;;0.10;0.10;;;12.30;99.90;;;;;;5087146;28;20035;-82
2023/11/02 00:33:10;;;;;;;0.10;0.10;;;12.30;99.90;;;;;;5087983;28;20035;-82
2023/11/02 00:35:43;;;;;;;0.10;0.10;;;12.50;99.60;;;;;;5089993;28;20386;-81
2023/11/02 00:38:09;;;;;;;0.17;0.17;;;12.40;99.50;;;;;;5070063;28;20481;-83
2023/11/02 00:40:35;;;;;;;0.00;0.00;;;12.40;98.80;;;;;;5095256;28;20028;-83
2023/11/02 00:43:00;;;;;;;0.05;0.05;;;12.40;98.50;;;;;;5090589;28;20088;-82
2023/11/02 00:45:26;;;;;;;0.00;0.00;;;12.50;98.00;;;;;;5091186;28;20055;-82
2023/11/02 00:47:52;;;;;;;0.10;0.10;;;12.60;97.10;;;;;;5073816;28;20554;-84
2023/11/02 00:50:47;;;;;;;0.00;0.00;;;12.50;97.60;;;;;;5102012;28;20055;-81
2023/11/02 00:53:13;;;;;;;0.10;0.10;;;12.60;97.10;;;;;;5022980;28;20451;-82
2023/11/02 00:55:38;;;;;;;0.00;0.00;;;12.60;96.90;;;;;;5098772;28;20092;-81
2023/11/02 00:58:09;;;;;;;0.10;0.10;;;12.60;96.70;;;;;;5096095;28;20600;-83
2023/11/02 01:00:53;;;;;;;0.10;0.10;;;12.60;96.90;;;;;;5088915;28;20048;-83
2023/11/02 01:03:23;;;;;;;0.00;0.00;;;12.70;96.50;;;;;;5086361;28;20036;-83
2023/11/02 01:05:51;;;;;;;0.03;0.03;;;12.70;96.60;;;;;;5081848;28;20027;-82
2023/11/02 01:08:25;;;;;;;0.10;0.10;;;12.80;95.70;;;;;;5103127;27;20020;-82
2023/11/02 01:10:51;;;;;;;0.10;0.10;;;12.80;95.90;;;;;;5069238;28;20074;-82
2023/11/02 01:13:18;;;;;;;0.10;0.10;;;12.80;95.90;;;;;;5096893;27;20524;-82
2023/11/02 01:15:43;;;;;;;;;;;12.80;95.60;;;;;;5074115;28;20035;-83
2023/11/02 01:18:14;;;;;;;0.00;0.00;;;12.90;95.50;;;;;;5088633;28;20665;-81
2023/11/02 01:20:39;;;;;;;0.10;0.10;;;12.90;95.20;;;;;;5094432;28;20829;-82
2023/11/02 01:23:15;;;;;;;0.00;0.00;;;12.90;95.10;;;;;;5087560;28;20040;-82
2023/11/02 01:25:50;;;;;;;0.10;0.10;;;13.00;94.60;;;;;;5087526;28;20039;-82
2023/11/02 01:28:18;;;;;;;0.00;0.00;;;13.10;94.40;;;;;;5070108;28;20553;-81
2023/11/02 01:30:53;;;;;;;0.05;0.05;;;13.10;94.40;;;;;;5097702;28;20027;-82
2023/11/02 01:33:34;;;;;;;0.10;0.10;;;13.00;94.30;;;;;;5087267;28;20031;-83
2023/11/02 01:36:01;;;;;;;0.05;0.05;;;13.00;94.40;;;;;;5094605;28;20062;-83
2023/11/02 01:38:27;;;;;;;0.00;0.00;;;13.00;94.60;;;;;;5094953;27;20768;-80
2023/11/02 01:41:09;;;;;;;0.10;0.10;;;12.80;95.70;;;;;;5091865;28;20031;-81
2023/11/02 01:43:56;;;;;;;0.00;0.00;;;11.90;99.90;;;;;;5093230;28;20036;-81
2023/11/02 01:46:34;;;;;;;0.00;0.00;;;11.60;99.90;;;;;;5094068;28;20062;-81
2023/11/02 01:49:06;;;;;;;0.10;0.10;;;11.50;99.90;;;;;;5097267;28;20039;-81
2023/11/02 01:51:35;;;;;;;0.63;0.63;;;11.50;99.90;;;;;;5091309;28;20447;-79
2023/11/02 01:54:01;;;;;;;0.10;0.10;;;11.20;99.90;;;;;;5086907;28;20027;-79
2023/11/02 01:56:41;;;;;;;0.10;0.10;;;11.40;99.90;;;;;;5102474;28;20027;-79
2023/11/02 01:59:07;;;;;;;0.00;0.00;;;11.20;99.90;;;;;;5089453;28;20075;-78
2023/11/02 02:01:43;;;;;;;0.10;0.10;;;11.30;99.90;;;;;;5089309;28;20134;-79
2023/11/02 02:04:41;;;;;;;0.85;0.82;;;11.00;99.90;;;;;;5068712;28;20126;-79
2023/11/02 02:07:33;;;;;;;0.08;0.08;;;11.30;99.90;;;;;;5089359;28;20024;-81
2023/11/02 02:10:12;;;;;;;0.10;0.10;;;11.20;99.90;;;;;;5091647;28;20049;-81
2023/11/02 02:13:06;;;;;;;0.03;0.03;;;11.20;99.90;;;;;;5087822;28;20028;-81
2023/11/02 02:15:51;;;;;;;0.10;0.10;;;11.20;99.90;;;;;;5067200;28;20039;-80
2023/11/02 02:18:33;;;;;;;0.10;0.10;;;11.30;99.90;;;;;;5084716;28;20028;-80
2023/11/02 02:21:07;;;;;;;0.10;0.10;;;11.40;99.90;;;;;;5086561;28;20016;-81
2023/11/02 02:23:52;;;;;;;0.10;0.10;;;11.50;99.90;;;;;;5090929;28;20126;-80
2023/11/02 02:26:30;;;;;;;0.10;0.10;;;11.70;99.90;;;;;;5093150;28;20035;-80
2023/11/02 02:29:19;;;;;;;0.00;0.00;;;11.80;99.90;;;;;;5094605;28;20419;-81
2023/11/02 02:32:07;;;;;;;0.10;0.10;;;11.80;99.90;;;;;;5075262;28;20081;-81
2023/11/02 02:34:50;;;;;;;0.17;0.17;;;11.70;99.90;;;;;;5087146;28;20032;-81
2023/11/02 02:37:27;;;;;;;0.00;0.00;;;11.50;99.90;;;;;;5066203;28;20402;-80
2023/11/02 02:40:08;;;;;;;0.00;0.00;;;11.60;99.90;;;;;;5090228;28;20039;-81
2023/11/02 02:42:37;;;;;;;0.00;0.00;;;11.60;99.90;;;;;;5092027;28;20055;-81
2023/11/02 02:45:11;;;;;;;0.10;0.10;;;11.70;99.90;;;;;;5067015;28;20039;-81
2023/11/02 02:47:38;;;;;;;0.10;0.10;;;11.70;99.90;;;;;;5077689;28;20502;-81
2023/11/02 02:50:06;;;;;;;;;;;11.80;99.90;;;;;;5087926;28;20027;-81
2023/11/02 02:52:34;;;;;;;0.10;0.10;;;11.70;99.90;;;;;;5090487;28;19911;-80
2023/11/02 02:55:02;;;;;;;0.10;0.10;;;11.70;99.90;;;;;;5092827;28;20016;-81
2023/11/02 02:57:31;;;;;;;0.00;0.00;;;11.80;99.90;;;;;;5081535;28;20030;-80
2023/11/02 02:59:59;;;;;;;0.00;0.00;;;11.80;99.90;;;;;;5070886;28;20071;-80
2023/11/02 03:02:32;;;;;;;0.00;0.00;;;11.80;99.90;;;;;;5067644;28;20048;-80
2023/11/02 03:04:58;;;;;;;0.00;0.00;;;11.90;99.90;;;;;;5092187;28;20051;-81
2023/11/02 03:07:29;;;;;;;0.05;0.05;;;11.90;99.90;;;;;;5102173;27;20015;-80
2023/11/02 03:10:00;;;;;;;0.00;0.00;;;12.00;99.90;;;;;;5088989;28;20041;-80
2023/11/02 03:12:28;;;;;;;0.10;0.10;;;11.90;99.90;;;;;;5067173;28;20487;-80
2023/11/02 03:14:59;;;;;;;0.00;0.00;;;11.90;99.90;;;;;;5096125;28;20395;-79
2023/11/02 03:17:33;;;;;;;0.10;0.10;;;11.80;99.90;;;;;;5091466;28;20085;-81
2023/11/02 03:19:59;;;;;;;0.10;0.10;;;11.90;99.90;;;;;;5084251;28;20032;-82
2023/11/02 03:22:26;;;;;;;3.97;3.63;;;11.90;99.90;;;;;;5091236;28;20022;-79
2023/11/02 03:24:57;;;;;;;0.10;0.10;;;11.90;99.90;;;;;;5084696;28;20754;-79
2023/11/02 03:27:54;;;;;;;0.00;0.00;;;11.90;99.90;;;;;;5077341;28;20024;-79
2023/11/02 03:30:31;;;;;;;0.10;0.10;;;11.90;99.90;;;;;;5066563;28;20028;-81
2023/11/02 03:33:19;;;;;;;;;;;12.00;99.90;;;;;;5072409;28;20075;-80
2023/11/02 03:35:57;;;;;;;0.03;0.03;;;11.90;99.90;;;;;;5089919;28;19912;-80
2023/11/02 03:38:43;;;;;;;0.00;0.00;;;11.90;99.90;;;;;;5083002;28;20055;-82
2023/11/02 03:41:40;;;;;;;0.03;0.03;;;11.90;99.90;;;;;;5089114;28;20601;-81
2023/11/02 03:44:41;;;;;;;0.10;0.10;;;11.50;99.90;;;;;;5087480;28;20707;-81
2023/11/02 03:47:10;;;;;;;0.03;0.03;;;11.10;99.90;;;;;;5085308;28;20107;-82
2023/11/02 03:49:48;;;;;;;0.10;0.10;;;11.10;99.90;;;;;;5076445;28;20031;-80
2023/11/02 03:52:34;;;;;;;0.00;0.00;;;11.20;99.90;;;;;;5086397;28;20016;-81
2023/11/02 03:55:07;;;;;;;0.00;0.00;;;11.40;99.90;;;;;;5093774;28;20166;-80
2023/11/02 03:57:52;;;;;;;0.10;0.10;;;11.30;99.90;;;;;;5097268;28;20031;-82
2023/11/02 04:00:21;;;;;;;0.00;0.00;;;11.20;99.90;;;;;;5071430;28;20052;-81
2023/11/02 04:03:00;;;;;;;0.10;0.10;;;11.30;99.90;;;;;;5070913;28;20039;-80
2023/11/02 04:05:28;;;;;;;0.10;0.10;;;11.10;99.90;;;;;;5092562;28;20028;-80
2023/11/02 04:07:56;;;;;;;0.00;0.00;;;11.20;99.90;;;;;;5081059;28;20032;-80
2023/11/02 04:10:27;;;;;;;0.00;0.00;;;11.00;99.90;;;;;;5098500;28;20036;-80
2023/11/02 04:13:02;;;;;;;0.00;0.00;;;11.00;99.90;;;;;;5093754;27;20015;-80
2023/11/02 04:15:28;;;;;;;0.10;0.10;;;11.00;99.90;;;;;;5097970;28;20031;-80
2023/11/02 04:17:53;;;;;;;0.10;0.10;;;11.10;99.90;;;;;;5099074;28;20024;-80
2023/11/02 04:20:19;;;;;;;0.00;0.00;;;11.00;99.90;;;;;;5095790;28;20427;-80
2023/11/02 04:22:45;;;;;;;0.10;0.10;;;11.00;99.90;;;;;;5090113;28;20032;-79
2023/11/02 04:25:11;;;;;;;0.00;0.00;;;11.00;99.90;;;;;;5098921;28;20080;-80
2023/11/02 04:27:37;;;;;;;0.10;0.10;;;11.10;99.90;;;;;;5093294;28;20019;-80
2023/11/02 04:30:03;;;;;;;0.00;0.00;;;11.00;99.90;;;;;;5092088;28;20108;-80
2023/11/02 04:32:29;;;;;;;0.10;0.10;;;10.90;99.90;;;;;;5093491;28;20027;-81
2023/11/02 04:34:56;;;;;;;0.00;0.00;;;10.70;99.90;;;;;;5089215;28;20024;-81
2023/11/02 04:37:22;;;;;;;0.10;0.10;;;10.90;99.90;;;;;;5092625;28;20378;-82
2023/11/02 04:39:48;;;;;;;0.10;0.10;;;10.90;99.90;;;;;;5090247;28;20064;-81
2023/11/02 04:42:18;;;;;;;0.00;0.00;;;10.90;99.90;;;;;;5093620;28;20030;-82
2023/11/02 04:44:44;;;;;;;0.00;0.00;;;11.10;99.90;;;;;;5097996;28;20051;-82
2023/11/02 04:47:10;;;;;;;0.00;0.00;;;11.00;99.90;;;;;;5087423;28;20103;-80
2023/11/02 04:49:36;;;;;;;0.10;0.10;;;11.00;99.90;;;;;;5104403;28;20278;-81
2023/11/02 04:52:04;;;;;;;0.47;0.47;;;11.00;99.90;;;;;;5096927;28;20833;-81
2023/11/02 04:54:31;;;;;;;0.00;0.00;;;11.00;99.90;;;;;;5100471;28;20034;-81
2023/11/02 04:56:58;;;;;;;0.10;0.10;;;10.90;99.90;;;;;;5102338;28;20023;-79
2023/11/02 04:59:24;;;;;;;0.03;0.03;;;11.00;99.90;;;;;;5089037;28;20063;-81
2023/11/02 05:01:50;;;;;;;0.00;0.00;;;11.00;99.90;;;;;;5067579;28;20025;-81
2023/11/02 05:04:16;;;;;;;0.00;0.00;;;11.00;99.90;;;;;;5066405;28;20048;-80
2023/11/02 05:06:42;;;;;;;0.00;0.00;;;10.90;99.90;;;;;;5071567;28;20036;-81
2023/11/02 05:09:08;;;;;;;0.00;0.00;;;10.90;99.90;;;;;;5077484;28;20071;-80
2023/11/02 05:11:33;;;;;;;0.00;0.00;;;10.70;99.90;;;;;;5072270;28;20867;-82
2023/11/02 05:13:59;;;;;;;0.10;0.10;;;10.90;99.90;;;;;;5064940;28;20074;-82
2023/11/02 05:16:25;;;;;;;0.10;0.10;;;10.80;99.90;;;;;;5070604;28;20025;-81
2023/11/02 05:18:51;;;;;;;0.10;0.10;;;10.60;99.90;;;;;;5076094;28;20036;-82
2023/11/02 05:21:16;;;;;;;0.10;0.10;;;10.80;99.90;;;;;;5073322;28;20645;-82
2023/11/02 05:23:42;;;;;;;0.00;0.00;;;10.70;99.90;;;;;;5071682;28;20037;-84
2023/11/02 05:26:08;;;;;;;0.85;0.80;;;10.70;99.90;;;;;;5054505;28;20028;-83
2023/11/02 05:28:34;;;;;;;0.00;0.00;;;10.60;99.90;;;;;;5053699;28;20064;-82
2023/11/02 05:31:00;;;;;;;0.00;0.00;;;10.50;99.90;;;;;;5058242;28;20055;-84
2023/11/02 05:33:26;;;;;;;0.00;0.00;;;10.60;99.90;;;;;;5066541;28;20020;-81
2023/11/02 05:35:52;;;;;;;0.08;0.08;;;10.80;99.90;;;;;;5066633;28;20067;-81
2023/11/02 05:38:20;;;;;;;0.00;0.00;;;10.80;99.90;;;;;;5052929;28;20036;-80
2023/11/02 05:40:46;;;;;;;0.10;0.10;;;10.60;99.90;;;;;;5069482;28;20487;-80
2023/11/02 05:43:12;;;;;;;0.10;0.10;;;10.70;99.90;;;;;;5082429;28;20042;-81
2023/11/02 05:45:37;;;;;;;0.10;0.10;;;10.70;99.90;;;;;;5052207;28;20051;-81
2023/11/02 05:48:04;;;;;;;0.00;0.00;;;10.70;99.90;;;;;;5082711;28;20097;-80
2023/11/02 05:50:30;;;;;;;0.10;0.10;;;10.70;99.90;;;;;;5084981;28;20020;-79
2023/11/02 05:52:55;;;;;;;0.00;0.00;;;10.70;99.90;;;;;;5074781;28;20045;-78
2023/11/02 05:55:21;;;;;;;0.00;0.00;;;10.70;99.90;;;;;;5077866;28;20338;-78
2023/11/02 05:57:47;;;;;;;0.00;0.00;;;10.70;99.90;;;;;;5083111;28;20844;-78
2023/11/02 06:00:14;;;;;;;0.00;0.00;;;10.30;99.90;;;;;;5089720;28;20559;-79
2023/11/02 06:02:39;;;;;;;0.00;0.00;;;10.30;99.90;;;;;;5087718;28;20047;-79
2023/11/02 06:05:06;;;;;;;1.23;1.13;;;10.40;99.90;;;;;;5093300;28;20406;-79
2023/11/02 06:07:32;;;;;;;1.52;0.47;;;10.40;99.90;;;;;;5088672;28;20413;-79
2023/11/02 06:09:58;;;;;;;0.10;0.10;;;10.20;99.90;;;;;;5096596;28;20035;-79
2023/11/02 06:12:28;;;;;;;0.00;0.00;;;10.30;99.90;;;;;;5093709;28;20080;-79
2023/11/02 06:14:54;;;;;;;0.08;0.08;;;10.30;99.90;;;;;;5101349;28;20791;-78
2023/11/02 06:17:20;;;;;;;0.08;0.08;;;10.20;99.90;;;;;;5084486;28;20024;-79
2023/11/02 06:19:45;;;;;;;0.08;0.08;;;10.10;99.90;;;;;;5093623;28;20664;-79
2023/11/02 06:22:12;;;;;;;0.05;0.05;;;10.20;99.90;;;;;;5101108;28;20035;-79
2023/11/02 06:24:39;;;;;;;0.10;0.10;;;10.20;99.90;;;;;;5096024;28;20038;-78
2023/11/02 06:27:05;;;;;;;0.10;0.10;;;10.00;99.90;;;;;;5094160;28;20447;-79
2023/11/02 06:29:31;;;;;;;0.10;0.10;;;10.00;99.90;;;;;;5103152;28;20016;-80
2023/11/02 06:31:57;;;;;;;0.10;0.10;;;10.20;99.90;;;;;;5103523;28;20402;-81
2023/11/02 06:34:22;;;;;;;0.10;0.10;;;10.00;99.90;;;;;;5101466;28;20506;-80
2023/11/02 06:36:48;;;;;;;0.00;0.00;;;10.00;99.90;;;;;;5099464;28;20034;-80
2023/11/02 06:39:20;;;;;;;0.00;0.00;;;9.90;99.90;;;;;;5071512;28;20505;-81
2023/11/02 06:41:49;;;;;;;2.20;1.17;;;10.00;99.90;;;;;;5092129;28;20142;-80
2023/11/02 06:44:15;;;;;;;0.10;0.10;;;9.90;99.90;;;;;;5103016;28;20035;-84
2023/11/02 06:46:42;;;;;;;0.10;0.10;;;9.90;99.90;;;;;;5089454;28;20134;-81
2023/11/02 06:49:08;;;;;;;0.00;0.00;;;10.20;99.90;;;;;;5098114;28;20024;-81
2023/11/02 06:51:34;;;;;;;0.10;0.10;;;10.00;99.90;;;;;;5074763;28;20515;-80
2023/11/02 06:54:00;;;;;;;0.10;0.10;;;9.90;99.90;;;;;;5077320;28;20081;-80
2023/11/02 06:56:26;;;;;;;0.10;0.10;;;9.90;99.90;;;;;;5095366;28;20769;-78
2023/11/02 06:58:52;;;;;;;0.10;0.10;;;10.00;99.90;;;;;;5089280;28;20024;-78
2023/11/02 07:01:19;;;;;;;0.10;0.10;;;10.10;99.90;;;;;;5094656;28;20028;-78
2023/11/02 07:03:45;;;;;;;0.10;0.10;;;9.90;99.90;;;;;;5091822;28;20047;-79
2023/11/02 07:06:11;;;;;;;0.00;0.00;;;10.00;99.90;;;;;;5074549;28;20746;-78
2023/11/02 07:08:38;;;;;;;0.10;0.10;;;9.90;99.90;;;;;;5087008;28;20321;-79
2023/11/02 07:11:05;;;;;;;0.10;0.10;;;10.00;99.90;;;;;;5093988;28;20494;-78
2023/11/02 07:13:31;;;;;;;0.10;0.10;;;9.90;99.90;;;;;;5093611;28;20036;-79
2023/11/02 07:15:57;;;;;;;0.10;0.10;;;9.80;99.90;;;;;;5074301;28;20815;-79
2023/11/02 07:18:23;;;;;;;0.00;0.00;;;9.80;99.90;;;;;;5095989;28;20100;-79
2023/11/02 07:20:49;;;;;;;0.10;0.10;;;10.00;99.90;;;;;;5093963;28;20277;-81
2023/11/02 07:23:14;;;;;;;0.10;0.10;;;10.00;99.90;;;;;;5091236;28;20036;-81
2023/11/02 07:25:40;;;;;;;0.00;0.00;;;10.10;99.90;;;;;;5088187;28;20076;-80
2023/11/02 07:28:06;;;;;;;0.10;0.10;;;10.00;99.90;;;;;;5090424;28;20023;-82
2023/11/02 07:30:32;;;;;;;0.10;0.10;;;9.80;99.90;;;;;;5091569;28;20541;-82
2023/11/02 07:32:58;;;;;;;0.22;0.22;;;9.90;99.90;;;;;;5085716;28;20032;-82
2023/11/02 07:35:25;;;;;;;0.10;0.10;;;10.20;99.90;;;;;;5097464;28;20020;-82
2023/11/02 07:37:51;;;;;;;0.40;0.40;;;10.20;99.90;;;;;;5084587;28;20076;-82
2023/11/02 07:40:18;;;;;;;0.10;0.10;;;10.10;99.90;;;;;;5088915;28;20027;-82
2023/11/02 07:42:43;;;;;;;0.00;0.00;;;10.20;99.90;;;;;;5090266;28;20040;-83
2023/11/02 07:45:09;;;;;;;0.03;0.03;;;10.20;99.90;;;;;;5094536;28;20031;-83
2023/11/02 07:47:35;;;;;;;0.00;0.00;;;10.20;99.90;;;;;;5103307;28;20080;-82
2023/11/02 07:50:01;;;;;;;0.05;0.05;;;10.30;99.90;;;;;;5072488;28;20749;-82
2023/11/02 07:52:27;;;;;;;0.10;0.10;;;10.30;99.90;;;;;;5103287;28;20031;-84
2023/11/02 07:54:53;;;;;;;0.10;0.10;;;10.30;99.90;;;;;;5077312;28;20039;-82
2023/11/02 07:57:19;;;;;;;0.30;0.30;;;10.40;99.90;;;;;;5084375;28;20278;-83
2023/11/02 07:59:45;;;;;;;0.30;0.30;;;10.40;99.90;;;;;;5088588;28;20075;-83
2023/11/02 08:02:11;;;;;;;0.38;0.38;;;10.50;99.90;;;;;;5100969;28;20313;-83
2023/11/02 08:04:37;;;;;;;0.10;0.10;;;10.50;99.90;;;;;;5089120;28;20466;-83
2023/11/02 08:07:03;;;;;;;0.10;0.10;;;10.60;99.90;;;;;;5077741;28;20027;-84
2023/11/02 08:09:29;;;;;;;0.10;0.10;;;10.50;99.90;;;;;;5095877;28;20035;-83
2023/11/02 08:11:56;;;;;;;0.10;0.10;;;10.60;99.90;;;;;;5085779;28;20107;-83
2023/11/02 08:14:22;;;;;;;;;;;10.50;99.90;;;;;;5083103;28;20132;-83
2023/11/02 08:16:48;;;;;;;0.03;0.03;;;10.60;99.90;;;;;;5084229;28;19929;-83
2023/11/02 08:19:14;;;;;;;0.10;0.10;;;10.60;99.90;;;;;;5091204;28;20020;-84
2023/11/02 08:21:40;;;;;;;0.10;0.10;;;10.60;99.90;;;;;;5086100;28;20087;-84
2023/11/02 08:24:06;;;;;;;0.10;0.10;;;10.60;99.90;;;;;;5082465;28;20040;-83
2023/11/02 08:26:32;;;;;;;0.10;0.10;;;10.60;99.90;;;;;;5088788;28;20024;-83
2023/11/02 08:28:58;;;;;;;0.10;0.10;;;10.60;99.90;;;;;;5082557;28;20051;-83
2023/11/02 08:31:29;;;;;;;0.20;0.20;;;10.60;99.90;;;;;;5090918;28;20023;-83
2023/11/02 08:33:55;;;;;;;0.00;0.00;;;10.70;99.90;;;;;;5086595;28;20509;-83
2023/11/02 08:36:21;;;;;;;0.10;0.10;;;10.70;99.90;;;;;;5091439;28;20200;-83
2023/11/02 08:38:47;;;;;;;0.10;0.10;;;10.90;99.90;;;;;;5094325;28;20047;-85
2023/11/02 08:41:24;;;;;;;0.00;0.00;;;11.10;99.90;;;;;;5101251;28;20027;-83
2023/11/02 08:43:50;;;;;;;0.90;0.90;;;11.30;99.90;;;;;;5087908;28;20035;-83
2023/11/02 08:46:22;;;;;;;0.00;0.00;;;11.40;99.90;;;;;;5091182;28;20590;-83
2023/11/02 08:48:49;;;;;;;0.00;0.00;;;11.50;99.90;;;;;;5086601;28;20027;-83
2023/11/02 08:51:18;;;;;;;0.10;0.10;;;11.80;99.90;;;;;;5094539;28;20482;-79
2023/11/02 08:53:45;;;;;;;0.00;0.00;;;11.70;99.90;;;;;;5089787;28;20375;-81
2023/11/02 08:56:11;;;;;;;0.00;0.00;;;11.60;99.90;;;;;;5090082;28;20032;-81
2023/11/02 08:58:41;;;;;;;0.10;0.10;;;11.80;99.90;;;;;;5097121;28;20036;-81
2023/11/02 09:01:08;;;;;;;0.10;0.10;;;11.90;99.90;;;;;;5092221;28;20428;-81
2023/11/02 09:03:34;;;;;;;;;;;12.00;99.90;;;;;;5090857;28;20096;-81
2023/11/02 09:05:59;;;;;;;0.10;0.10;;;11.80;99.90;;;;;;5100854;28;20562;-81
2023/11/02 09:08:25;;;;;;;0.00;0.00;;;11.80;99.90;;;;;;5105990;27;20028;-81
2023/11/02 09:10:51;;;;;;;0.00;0.00;;;11.70;99.90;;;;;;5089100;28;20024;-81
2023/11/02 09:13:17;;;;;;;0.00;0.00;;;11.60;99.90;;;;;;5067497;28;20132;-81
2023/11/02 09:15:42;;;;;;;0.00;0.00;;;11.50;99.90;;;;;;5097499;28;20132;-81
2023/11/02 09:18:08;;;;;;;0.00;0.00;;;11.50;99.90;;;;;;5091787;28;20074;-82
2023/11/02 09:20:34;;;;;;;0.00;0.00;;;11.60;99.90;;;;;;5105666;28;20034;-81
2023/11/02 09:22:59;;;;;;;0.10;0.10;;;11.70;99.90;;;;;;5103286;28;20035;-81
2023/11/02 09:25:25;;;;;;;2.13;2.03;;;12.10;99.90;;;;;;5090907;28;20112;-82
2023/11/02 09:27:51;;;;;;;0.00;0.00;;;12.00;99.90;;;;;;5095134;28;20073;-81
2023/11/02 09:30:17;;;;;;;0.00;0.00;;;11.90;99.90;;;;;;5100221;28;20032;-81
2023/11/02 09:32:44;;;;;;;0.20;0.20;;;11.80;99.90;;;;;;5085864;28;20044;-81
2023/11/02 09:35:09;;;;;;;;;;;11.90;99.90;;;;;;5092651;28;20024;-84
2023/11/02 09:37:35;;;;;;;0.00;0.00;;;11.70;99.90;;;;;;5094714;28;19912;-83
2023/11/02 09:40:03;;;;;;;0.10;0.10;;;11.60;99.90;;;;;;5084911;28;20024;-83
2023/11/02 09:42:29;;;;;;;0.00;0.00;;;11.80;99.90;;;;;;5100394;28;20036;-84
2023/11/02 09:44:54;;;;;;;0.00;0.00;;;12.10;99.90;;;;;;5066475;28;20679;-84
2023/11/02 09:47:20;;;;;;;0.00;0.00;;;12.10;99.90;;;;;;5069022;28;20277;-83
2023/11/02 09:49:46;;;;;;;0.10;0.10;;;11.90;99.90;;;;;;5067621;28;20093;-84
2023/11/02 09:52:12;;;;;;;0.00;0.00;;;12.30;99.90;;;;;;5086272;28;20024;-83
2023/11/02 09:54:38;;;;;;;0.10;0.10;;;12.50;99.90;;;;;;5087339;28;20103;-84
2023/11/02 09:57:06;;;;;;;0.10;0.10;;;12.60;99.90;;;;;;5088889;28;20020;-84
2023/11/02 09:59:32;;;;;;;0.10;0.10;;;12.40;99.90;;;;;;5084996;28;20127;-83
2023/11/02 10:01:58;;;;;;;0.20;0.20;;;12.10;99.90;;;;;;5084458;28;20627;-83
2023/11/02 10:04:24;;;;;;;0.08;0.08;;;12.10;99.90;;;;;;5102474;28;20062;-84
2023/11/02 10:06:50;;;;;;;0.10;0.10;;;12.20;99.90;;;;;;5099990;27;20813;-86
2023/11/02 10:09:15;;;;;;;0.00;0.00;;;12.10;99.90;;;;;;5090851;28;20028;-85
2023/11/02 10:11:41;;;;;;;0.00;0.00;;;12.00;99.90;;;;;;5103994;28;20024;-86
2023/11/02 10:14:07;;;;;;;0.00;0.00;;;11.90;99.90;;;;;;5098129;28;20508;-86
2023/11/02 10:16:33;;;;;;;0.03;0.03;;;11.90;99.90;;;;;;5084132;28;20170;-87
2023/11/02 10:18:58;;;;;;;0.32;0.32;;;11.80;99.90;;;;;;5100015;28;20036;-84
2023/11/02 10:21:24;;;;;;;0.00;0.00;;;11.80;99.90;;;;;;5088154;28;20022;-85
2023/11/02 10:23:55;;;;;;;0.00;0.00;;;11.70;99.90;;;;;;5093259;28;20090;-85
2023/11/02 10:26:28;;;;;;;0.10;0.10;;;11.70;99.90;;;;;;5070651;28;20032;-85
2023/11/02 10:28:55;;;;;;;0.10;0.10;;;11.80;99.90;;;;;;5095188;28;20706;-85
2023/11/02 10:31:24;;;;;;;0.10;0.10;;;11.70;99.90;;;;;;5089957;28;20159;-85
2023/11/02 10:33:50;;;;;;;0.10;0.10;;;11.20;99.90;;;;;;5095140;28;20019;-86
2023/11/02 10:36:17;;;;;;;0.10;0.10;;;11.30;99.90;;;;;;5098634;28;20076;-93
2023/11/02 10:38:44;;;;;;;0.00;0.00;;;11.50;99.90;;;;;;5094626;28;20395;-85
2023/11/02 10:41:16;;;;;;;0.10;0.10;;;11.90;99.90;;;;;;5085287;28;20027;-86
2023/11/02 10:43:45;;;;;;;0.10;0.10;;;11.70;99.90;;;;;;5081154;28;20063;-87
2023/11/02 10:46:11;;;;;;;0.00;0.00;;;11.70;99.90;;;;;;5095739;28;20028;-89
2023/11/02 10:48:41;;;;;;;0.03;0.03;;;11.70;99.90;;;;;;5092475;28;20547;-85
2023/11/02 10:51:16;;;;;;;0.10;0.10;;;11.80;99.90;;;;;;5093179;28;20036;-85
2023/11/02 10:54:05;;;;;;;0.05;0.05;;;11.80;99.90;;;;;;5093922;28;20024;-87
2023/11/02 10:56:42;;;;;;;0.10;0.10;;;12.00;99.90;;;;;;5092475;28;20032;-88
2023/11/02 10:59:11;;;;;;;0.15;0.15;;;12.50;99.90;;;;;;5097731;28;20058;-83
2023/11/02 11:01:37;;;;;;;0.80;0.65;;;12.70;99.90;;;;;;5099841;28;20134;-85
2023/11/02 11:04:04;;;;;;;0.00;0.00;;;12.90;99.90;;;;;;5096478;28;20532;-80
2023/11/02 11:06:30;;;;;;;0.63;0.63;;;13.40;99.90;;;;;;5099900;28;20114;-79
2023/11/02 11:08:57;;;;;;;0.00;0.00;;;13.90;99.90;;;;;;5090372;28;20099;-82
2023/11/02 11:11:25;;;;;;;0.15;0.15;;;14.10;99.90;;;;;;5101498;28;20487;-81
2023/11/02 11:13:52;;;;;;;0.00;0.00;;;13.90;99.90;;;;;;5092342;28;20447;-80
2023/11/02 11:16:19;;;;;;;0.00;0.00;;;12.80;99.90;;;;;;5098909;28;20038;-83
2023/11/02 11:18:47;;;;;;;0.10;0.10;;;12.80;99.90;;;;;;5100185;28;20028;-83
2023/11/02 11:21:18;;;;;;;0.00;0.00;;;12.50;99.90;;;;;;5102251;28;20030;-83
2023/11/02 11:23:48;;;;;;;0.10;0.10;;;12.50;99.90;;;;;;5097595;28;20700;-82
2023/11/02 11:26:14;;;;;;;0.00;0.00;;;12.50;99.90;;;;;;5077862;28;20024;-84
2023/11/02 11:28:40;;;;;;;0.00;0.00;;;12.70;99.90;;;;;;5099710;28;20511;-80
2023/11/02 11:31:06;;;;;;;0.10;0.10;;;12.70;99.90;;;;;;5100335;28;20355;-83
2023/11/02 11:33:44;;;;;;;0.00;0.00;;;12.30;99.90;;;;;;5097559;28;20031;-83
2023/11/02 11:36:36;;;;;;;0.00;0.00;;;12.30;99.90;;;;;;5097550;28;20028;-81
2023/11/02 11:39:38;;;;;;;0.10;0.10;;;12.00;99.90;;;;;;5096721;28;20042;-82
2023/11/02 11:42:04;;;;;;;0.00;0.00;;;11.70;99.90;;;;;;5094296;28;20522;-81
2023/11/02 11:44:30;;;;;;;0.00;0.00;;;11.80;99.90;;;;;;5102849;28;20042;-84
2023/11/02 11:46:57;;;;;;;0.10;0.10;;;11.90;99.90;;;;;;5099055;28;20024;-82
2023/11/02 11:49:36;;;;;;;;;;;11.70;99.90;;;;;;5086781;28;20032;-86
2023/11/02 11:52:17;;;;;;;0.10;0.10;;;11.60;99.90;;;;;;5096752;28;19993;-83
2023/11/02 11:54:43;;;;;;;0.00;0.00;;;11.70;99.90;;;;;;5102082;28;20084;-83
2023/11/02 11:57:09;;;;;;;0.00;0.00;;;11.80;99.90;;;;;;5089538;28;20024;-87
2023/11/02 11:59:59;;;;;;;0.00;0.00;;;11.90;99.90;;;;;;5082357;28;20060;-86
2023/11/02 12:02:32;;;;;;;0.10;0.10;;;11.80;99.90;;;;;;5071014;28;20036;-84
2023/11/02 12:04:58;;;;;;;0.00;0.00;;;11.70;99.90;;;;;;5076526;28;20032;-83
2023/11/02 12:07:24;;;;;;;0.20;0.20;;;11.70;99.90;;;;;;5077359;28;20028;-81
2023/11/02 12:09:53;;;;;;;0.00;0.00;;;11.70;99.90;;;;;;5076787;28;20032;-81
2023/11/02 12:12:19;;;;;;;0.10;0.10;;;11.40;99.90;;;;;;5081861;28;20036;-79
2023/11/02 12:14:46;;;;;;;0.00;0.00;;;11.50;99.90;;;;;;5082266;28;20032;-84
2023/11/02 12:17:12;;;;;;;0.00;0.00;;;11.50;99.90;;;;;;5069850;28;20078;-85
2023/11/02 12:19:44;;;;;;;0.00;0.00;;;11.40;99.90;;;;;;5078469;28;20052;-83
2023/11/02 12:22:11;;;;;;;0.08;0.08;;;11.40;99.90;;;;;;5076276;28;20080;-81
2023/11/02 12:24:39;;;;;;;0.10;0.10;;;11.40;99.90;;;;;;5078054;28;20075;-84
2023/11/02 12:27:13;;;;;;;0.00;0.00;;;11.30;99.90;;;;;;5067938;28;20836;-85
2023/11/02 12:29:54;;;;;;;4.53;4.18;;;11.60;99.90;;;;;;5072842;28;20550;-80
2023/11/02 12:32:20;;;;;;;0.00;0.00;;;11.80;99.90;;;;;;5083873;28;20024;-80
2023/11/02 12:34:45;;;;;;;0.00;0.00;;;11.80;99.90;;;;;;5085280;28;20039;-82
2023/11/02 12:37:11;;;;;;;1.53;1.50;;;11.90;99.90;;;;;;5083091;28;20036;-83
2023/11/02 12:39:37;;;;;;;0.00;0.00;;;12.10;99.90;;;;;;5076279;28;20051;-84
2023/11/02 12:42:03;;;;;;;0.10;0.10;;;12.00;99.90;;;;;;5081436;28;20032;-82
2023/11/02 12:44:30;;;;;;;0.00;0.00;;;12.20;99.90;;;;;;5078588;28;20085;-85
2023/11/02 12:47:06;;;;;;;0.10;0.10;;;12.10;99.90;;;;;;5083825;28;20024;-85
2023/11/02 12:49:33;;;;;;;0.00;0.00;;;12.00;99.90;;;;;;5056682;28;20028;-84
2023/11/02 12:52:04;;;;;;;0.05;0.05;;;11.70;99.90;;;;;;5057451;28;20479;-84
2023/11/02 12:54:33;;;;;;;0.00;0.00;;;11.70;99.90;;;;;;5080385;28;20036;-84
2023/11/02 12:57:07;;;;;;;0.10;0.10;;;11.60;99.90;;;;;;5081307;28;20031;-85
2023/11/02 12:59:37;;;;;;;0.08;0.08;;;11.70;99.90;;;;;;5068060;28;20048;-85